Time;durP1;ratioP1;P1;durP2;ratioP2;P2;SDS_P1;SDS_P2;PMS_P1;PMS_P2;Temp;Humidity;BMP_temperature;BMP_pressure;BME280_temperature;BME280_humidity;BME280_pressure;Samples;Min_cycle;Max_cycle;Signal;HPM_P1;HPM_P2
2022/07/06 00:02:06;;;;;;;5.88;1.42;;;17.70;83.40;;;;;;5011162;28;20050;-74
2022/07/06 00:04:32;;;;;;;4.72;1.50;;;17.60;84.10;;;;;;5011832;28;20041;-75
2022/07/06 00:06:58;;;;;;;3.50;1.38;;;17.60;85.20;;;;;;5011164;28;20034;-77
2022/07/06 00:09:25;;;;;;;5.43;2.13;;;17.50;85.40;;;;;;5011942;28;20470;-75
2022/07/06 00:11:52;;;;;;;3.47;1.20;;;17.50;86.00;;;;;;5012006;28;20525;-74
2022/07/06 00:14:18;;;;;;;6.53;1.45;;;17.50;86.50;;;;;;5011543;28;20034;-76
2022/07/06 00:16:44;;;;;;;1.70;1.20;;;17.50;86.80;;;;;;5011901;28;20034;-75
2022/07/06 00:19:10;;;;;;;2.55;1.23;;;17.40;87.20;;;;;;5011425;28;20037;-75
2022/07/06 00:21:37;;;;;;;3.13;1.52;;;17.30;87.90;;;;;;5012264;28;20049;-75
2022/07/06 00:24:03;;;;;;;4.38;1.48;;;17.30;88.50;;;;;;5011321;28;20033;-75
2022/07/06 00:26:29;;;;;;;4.80;1.60;;;17.20;88.80;;;;;;5012422;28;20366;-75
2022/07/06 00:28:56;;;;;;;2.88;1.45;;;17.20;89.30;;;;;;5002587;28;20038;-75
2022/07/06 00:31:22;;;;;;;5.15;1.25;;;17.20;89.90;;;;;;5009868;28;20057;-75
2022/07/06 00:33:49;;;;;;;2.88;1.73;;;17.10;90.20;;;;;;5015763;28;20398;-75
2022/07/06 00:36:15;;;;;;;4.38;2.08;;;17.10;90.30;;;;;;5015329;28;20031;-77
2022/07/06 00:38:41;;;;;;;2.80;1.85;;;17.10;90.50;;;;;;5015485;28;20034;-77
2022/07/06 00:41:08;;;;;;;8.32;2.65;;;17.10;90.60;;;;;;5015133;28;20494;-77
2022/07/06 00:44:07;;;;;;;3.03;1.48;;;17.10;90.70;;;;;;5012905;28;20442;-77
2022/07/06 00:46:33;;;;;;;2.60;1.60;;;17.00;90.90;;;;;;4972549;28;20396;-77
2022/07/06 00:49:00;;;;;;;6.07;2.00;;;17.00;91.10;;;;;;4997601;28;20035;-78
2022/07/06 00:51:31;;;;;;;3.67;1.52;;;16.90;91.40;;;;;;5014991;28;20038;-77
2022/07/06 00:54:03;;;;;;;3.90;1.77;;;16.90;91.60;;;;;;5006694;28;20046;-79
2022/07/06 00:56:31;;;;;;;6.65;1.63;;;16.90;91.70;;;;;;4996972;28;20030;-78
2022/07/06 00:59:01;;;;;;;6.00;2.28;;;16.90;91.90;;;;;;4981065;28;20042;-77
2022/07/06 01:01:28;;;;;;;3.83;1.67;;;16.80;92.10;;;;;;5010028;28;20050;-77
2022/07/06 01:03:55;;;;;;;3.00;1.70;;;16.70;92.20;;;;;;5003725;28;20049;-77
2022/07/06 01:06:21;;;;;;;4.00;1.98;;;16.70;92.40;;;;;;5014558;28;20040;-77
2022/07/06 01:08:48;;;;;;;4.15;1.65;;;16.70;92.60;;;;;;5014516;28;20467;-78
2022/07/06 01:11:14;;;;;;;4.28;1.40;;;16.60;92.90;;;;;;5014262;28;20467;-75
2022/07/06 01:13:42;;;;;;;4.60;1.65;;;16.60;93.00;;;;;;5029060;28;20483;-75
2022/07/06 01:16:08;;;;;;;3.38;1.42;;;16.50;93.30;;;;;;5029486;28;20463;-75
2022/07/06 01:18:35;;;;;;;4.55;2.00;;;16.50;93.50;;;;;;5029934;28;20061;-76
2022/07/06 01:21:13;;;;;;;10.07;2.00;;;16.50;93.80;;;;;;5012528;28;20038;-75
2022/07/06 01:23:43;;;;;;;3.95;2.60;;;16.40;93.90;;;;;;5014031;28;20479;-75
2022/07/06 01:26:19;;;;;;;3.00;1.60;;;16.40;94.20;;;;;;5019573;28;20042;-75
2022/07/06 01:28:46;;;;;;;3.33;1.85;;;16.40;94.50;;;;;;5006750;28;20390;-75
2022/07/06 01:31:19;;;;;;;4.57;2.08;;;16.30;94.80;;;;;;5009329;28;20043;-75
2022/07/06 01:33:45;;;;;;;5.70;2.10;;;16.30;95.10;;;;;;5010481;28;20054;-76
2022/07/06 01:36:11;;;;;;;3.60;2.25;;;16.20;95.40;;;;;;5011822;28;20044;-76
2022/07/06 01:39:03;;;;;;;5.18;2.10;;;16.20;95.60;;;;;;5014462;28;20041;-76
2022/07/06 01:41:30;;;;;;;3.65;1.88;;;16.10;96.00;;;;;;5013088;28;20057;-76
2022/07/06 01:43:56;;;;;;;2.15;1.70;;;16.10;96.30;;;;;;5028487;28;20034;-76
2022/07/06 01:46:22;;;;;;;2.88;2.00;;;16.10;96.50;;;;;;5014086;28;20034;-76
2022/07/06 01:48:48;;;;;;;7.45;2.10;;;16.00;96.70;;;;;;5013721;28;20030;-76
2022/07/06 01:51:15;;;;;;;3.63;1.90;;;16.00;96.90;;;;;;5013652;28;20569;-76
2022/07/06 01:53:43;;;;;;;9.18;2.90;;;15.90;97.20;;;;;;5019618;28;20047;-76
2022/07/06 01:56:11;;;;;;;2.95;1.95;;;15.90;97.60;;;;;;5015820;28;20042;-75
2022/07/06 01:58:38;;;;;;;3.80;2.00;;;15.90;97.70;;;;;;5019599;28;20046;-77
2022/07/06 02:01:12;;;;;;;4.00;1.70;;;15.80;97.90;;;;;;4999021;28;20042;-75
2022/07/06 02:03:39;;;;;;;3.70;1.70;;;15.80;98.00;;;;;;5012009;28;20042;-75
2022/07/06 02:06:07;;;;;;;3.80;2.47;;;15.80;98.40;;;;;;4995990;28;20049;-75
2022/07/06 02:08:34;;;;;;;6.25;2.45;;;15.80;98.40;;;;;;5011596;28;20402;-75
2022/07/06 02:11:02;;;;;;;4.15;2.00;;;15.70;98.60;;;;;;5012025;28;20493;-76
2022/07/06 02:13:29;;;;;;;5.43;1.83;;;15.70;98.60;;;;;;4997535;28;20053;-75
2022/07/06 02:15:56;;;;;;;4.10;2.45;;;15.70;98.70;;;;;;5013500;28;20046;-75
2022/07/06 02:18:22;;;;;;;5.35;2.22;;;15.70;98.60;;;;;;5016151;28;20033;-75
2022/07/06 02:20:48;;;;;;;2.53;1.73;;;15.70;98.70;;;;;;5011344;28;20042;-75
2022/07/06 02:23:15;;;;;;;5.57;1.48;;;15.60;99.00;;;;;;5009877;28;20033;-75
2022/07/06 02:25:41;;;;;;;5.60;2.03;;;15.60;99.00;;;;;;5011573;28;20041;-75
2022/07/06 02:28:07;;;;;;;2.38;1.73;;;15.60;99.30;;;;;;5028185;28;20044;-78
2022/07/06 02:30:33;;;;;;;3.72;1.85;;;15.60;99.40;;;;;;5013195;28;20053;-77
2022/07/06 02:33:00;;;;;;;4.35;1.95;;;15.50;99.60;;;;;;5011150;28;20050;-77
2022/07/06 02:35:26;;;;;;;3.08;1.98;;;15.50;99.80;;;;;;5013522;28;20038;-77
2022/07/06 02:37:53;;;;;;;3.47;2.20;;;15.40;99.90;;;;;;5012997;28;20049;-77
2022/07/06 02:40:19;;;;;;;4.30;1.80;;;15.30;99.90;;;;;;5026591;28;20053;-77
2022/07/06 02:42:46;;;;;;;4.50;1.60;;;15.30;99.90;;;;;;5027154;28;20054;-77
2022/07/06 02:45:12;;;;;;;5.40;2.33;;;15.30;99.90;;;;;;5026132;28;20038;-78
2022/07/06 02:47:38;;;;;;;3.92;1.90;;;15.30;99.90;;;;;;5008969;28;20479;-77
2022/07/06 02:50:05;;;;;;;4.35;2.42;;;15.20;99.90;;;;;;4991492;28;20053;-77
2022/07/06 02:52:32;;;;;;;2.78;1.85;;;15.20;99.90;;;;;;5019844;28;20049;-76
2022/07/06 02:55:00;;;;;;;4.22;1.77;;;15.20;99.90;;;;;;4991487;28;20061;-77
2022/07/06 02:57:27;;;;;;;7.15;2.58;;;15.20;99.90;;;;;;5004781;28;20476;-77
2022/07/06 02:59:53;;;;;;;4.47;1.70;;;15.20;99.90;;;;;;5010436;28;20471;-77
2022/07/06 03:02:20;;;;;;;2.65;1.55;;;15.20;99.90;;;;;;5012344;28;20400;-78
2022/07/06 03:04:47;;;;;;;2.75;2.08;;;15.20;99.90;;;;;;4994173;28;20490;-77
2022/07/06 03:07:15;;;;;;;5.55;2.15;;;15.20;99.90;;;;;;4994533;28;20042;-78
2022/07/06 03:09:41;;;;;;;3.67;1.60;;;15.10;99.90;;;;;;4978520;28;20042;-77
2022/07/06 03:12:08;;;;;;;2.80;1.50;;;15.00;99.90;;;;;;4994209;28;20470;-75
2022/07/06 03:14:35;;;;;;;8.73;1.88;;;15.00;99.90;;;;;;4994729;28;20052;-74
2022/07/06 03:17:02;;;;;;;3.13;1.65;;;15.00;99.90;;;;;;4994261;28;20042;-78
2022/07/06 03:19:28;;;;;;;3.80;1.50;;;15.00;99.90;;;;;;5012037;28;20045;-75
2022/07/06 03:21:55;;;;;;;4.68;1.92;;;15.00;99.90;;;;;;5011182;28;20175;-75
2022/07/06 03:24:22;;;;;;;3.15;2.17;;;15.00;99.90;;;;;;5009734;28;20263;-75
2022/07/06 03:26:48;;;;;;;3.53;1.67;;;14.90;99.90;;;;;;5010880;28;20455;-74
2022/07/06 03:29:15;;;;;;;5.95;1.60;;;15.00;99.90;;;;;;5020540;28;20024;-76
2022/07/06 03:31:41;;;;;;;4.15;1.35;;;14.90;99.90;;;;;;5017679;28;20054;-76
2022/07/06 03:34:07;;;;;;;2.38;1.35;;;14.90;99.90;;;;;;5009488;28;20042;-74
2022/07/06 03:36:35;;;;;;;2.63;1.60;;;14.90;99.90;;;;;;5014711;28;20414;-76
2022/07/06 03:39:01;;;;;;;4.20;1.55;;;14.80;99.90;;;;;;5009371;28;20026;-75
2022/07/06 03:41:28;;;;;;;3.97;1.02;;;14.80;99.90;;;;;;4997321;28;20038;-75
2022/07/06 03:43:54;;;;;;;3.28;1.40;;;14.90;99.90;;;;;;4998316;28;20038;-75
2022/07/06 03:46:22;;;;;;;4.25;1.50;;;14.90;99.90;;;;;;4994884;28;20222;-75
2022/07/06 03:48:48;;;;;;;2.38;1.50;;;14.90;99.90;;;;;;4993766;28;20053;-76
2022/07/06 03:51:14;;;;;;;5.25;1.88;;;14.90;99.90;;;;;;5002408;28;20038;-75
2022/07/06 03:53:41;;;;;;;2.15;1.52;;;14.90;99.90;;;;;;5003278;28;20403;-75
2022/07/06 03:58:52;;;;;;;5.50;2.50;;;14.90;99.90;;;;;;5005160;28;20045;-76
2022/07/06 04:01:18;;;;;;;2.00;1.05;;;14.90;99.90;;;;;;5014874;28;20478;-77
2022/07/06 04:03:44;;;;;;;5.82;1.42;;;14.90;99.90;;;;;;5012589;28;20042;-76
2022/07/06 04:06:11;;;;;;;2.33;1.13;;;14.90;99.90;;;;;;5014350;28;20041;-76
2022/07/06 04:08:38;;;;;;;4.00;1.30;;;14.90;99.90;;;;;;5030227;28;20041;-76
2022/07/06 04:11:04;;;;;;;4.97;1.48;;;14.90;99.90;;;;;;5011289;28;20053;-77
2022/07/06 04:13:32;;;;;;;2.92;1.35;;;14.90;99.90;;;;;;5014428;28;20073;-76
2022/07/06 04:15:58;;;;;;;5.80;1.67;;;15.00;99.90;;;;;;5031193;28;20046;-77
2022/07/06 04:18:25;;;;;;;6.63;1.98;;;15.00;99.90;;;;;;4996209;28;20115;-76
2022/07/06 04:20:54;;;;;;;3.78;1.38;;;15.00;99.90;;;;;;5024438;28;20038;-76
2022/07/06 04:23:20;;;;;;;2.80;1.15;;;15.10;99.90;;;;;;5030726;28;20046;-76
2022/07/06 04:25:47;;;;;;;3.50;1.65;;;15.20;99.90;;;;;;5014622;28;20042;-76
2022/07/06 04:28:13;;;;;;;2.60;1.10;;;15.90;99.00;;;;;;5013886;28;20046;-76
2022/07/06 04:30:40;;;;;;;4.75;1.23;;;16.40;96.90;;;;;;5029963;28;20042;-76
2022/07/06 04:33:11;;;;;;;;;;;16.60;96.10;;;;;;5020951;28;20142;-76
2022/07/06 04:35:38;;;;;;;2.65;1.27;;;16.60;96.60;;;;;;5011726;28;19920;-76
2022/07/06 04:38:04;;;;;;;5.50;1.35;;;16.90;95.60;;;;;;5010150;28;20042;-78
2022/07/06 04:40:31;;;;;;;3.92;1.27;;;17.40;94.20;;;;;;5012558;28;20399;-77
2022/07/06 04:43:02;;;;;;;2.63;1.00;;;18.00;92.70;;;;;;5006395;28;20053;-77
2022/07/06 04:45:30;;;;;;;2.42;1.00;;;18.00;92.00;;;;;;5007092;28;20021;-76
2022/07/06 04:47:57;;;;;;;5.05;1.25;;;17.80;92.20;;;;;;5026970;28;20049;-76
2022/07/06 04:50:25;;;;;;;2.03;1.13;;;17.30;93.20;;;;;;5013299;28;20500;-76
2022/07/06 04:52:52;;;;;;;3.15;0.80;;;17.10;93.70;;;;;;5014538;28;20050;-76
2022/07/06 04:55:19;;;;;;;2.90;0.98;;;17.40;92.90;;;;;;5022091;28;20407;-76
2022/07/06 04:57:47;;;;;;;5.90;1.10;;;17.80;92.30;;;;;;5011486;28;20046;-76
2022/07/06 05:00:14;;;;;;;2.17;1.00;;;17.80;91.40;;;;;;5010509;28;20035;-76
2022/07/06 05:02:41;;;;;;;3.10;1.40;;;17.70;91.80;;;;;;4995396;28;20046;-77
2022/07/06 05:05:09;;;;;;;4.78;1.00;;;18.20;91.30;;;;;;4996550;28;20049;-76
2022/07/06 05:07:39;;;;;;;3.17;1.15;;;18.50;89.70;;;;;;4996850;28;20045;-77
2022/07/06 05:10:10;;;;;;;4.13;1.55;;;18.00;90.70;;;;;;4996094;28;20046;-77
2022/07/06 05:12:38;;;;;;;3.10;1.20;;;17.70;91.10;;;;;;4997090;28;20053;-76
2022/07/06 05:15:05;;;;;;;3.60;1.13;;;18.20;90.20;;;;;;4999459;28;20041;-77
2022/07/06 05:17:32;;;;;;;6.85;1.27;;;18.30;90.30;;;;;;5013700;28;20049;-75
2022/07/06 05:20:00;;;;;;;5.20;1.40;;;18.50;88.50;;;;;;5001731;28;20038;-75
2022/07/06 05:22:28;;;;;;;3.05;1.38;;;18.50;87.50;;;;;;5012378;28;20053;-76
2022/07/06 05:24:54;;;;;;;6.25;1.40;;;18.40;88.70;;;;;;5014580;28;20034;-76
2022/07/06 05:27:22;;;;;;;2.55;1.35;;;18.20;89.60;;;;;;5013337;28;20042;-76
2022/07/06 05:29:48;;;;;;;4.50;1.50;;;18.60;88.10;;;;;;5005761;28;20038;-76
2022/07/06 05:32:15;;;;;;;4.93;1.17;;;18.90;85.60;;;;;;5002134;28;20050;-75
2022/07/06 05:34:42;;;;;;;3.65;1.63;;;18.90;85.80;;;;;;5006028;28;20042;-75
2022/07/06 05:37:10;;;;;;;3.42;1.23;;;18.40;86.70;;;;;;4996416;28;20042;-76
2022/07/06 05:39:38;;;;;;;5.13;1.75;;;18.50;87.00;;;;;;5001759;28;20054;-76
2022/07/06 05:42:05;;;;;;;4.82;1.08;;;18.60;86.00;;;;;;5000215;28;20042;-76
2022/07/06 05:44:33;;;;;;;4.07;1.08;;;18.50;86.70;;;;;;4992647;28;20046;-75
2022/07/06 05:50:11;;;;;;;4.38;1.52;;;18.80;86.50;;;;;;4986352;28;20043;-76
2022/07/06 05:52:32;;;;;;;3.10;1.35;;;19.30;82.80;;;;;;4995777;28;20410;-76
2022/07/06 05:54:58;;;;;;;5.50;1.52;;;19.60;79.70;;;;;;5014275;28;20041;-77
2022/07/06 05:57:25;;;;;;;11.82;1.60;;;18.50;84.30;;;;;;4995858;28;20050;-76
2022/07/06 05:59:51;;;;;;;4.80;1.77;;;18.50;84.50;;;;;;4996681;28;20041;-76
2022/07/06 06:02:17;;;;;;;3.45;1.75;;;18.80;84.20;;;;;;5013133;28;20058;-76
2022/07/06 06:04:44;;;;;;;1.98;1.10;;;19.10;83.30;;;;;;4993304;28;20043;-76
2022/07/06 06:07:10;;;;;;;4.93;1.50;;;19.60;81.00;;;;;;5013451;28;20042;-76
2022/07/06 06:09:36;;;;;;;5.45;1.50;;;19.80;80.40;;;;;;4994553;28;20384;-77
2022/07/06 06:12:03;;;;;;;2.95;1.30;;;20.10;79.20;;;;;;5013731;28;20026;-77
2022/07/06 06:14:30;;;;;;;4.72;1.45;;;20.00;78.30;;;;;;4977488;28;20042;-76
2022/07/06 06:16:57;;;;;;;17.27;2.80;;;19.40;81.00;;;;;;4993836;28;20046;-75
2022/07/06 06:19:23;;;;;;;9.40;1.80;;;19.40;80.30;;;;;;4999374;28;20050;-76
2022/07/06 06:21:51;;;;;;;9.18;2.08;;;19.10;80.10;;;;;;5015255;28;20037;-76
2022/07/06 06:24:17;;;;;;;3.47;2.00;;;18.80;82.50;;;;;;5014059;28;20029;-76
2022/07/06 06:26:43;;;;;;;2.20;1.30;;;18.50;84.30;;;;;;5012776;28;20037;-76
2022/07/06 06:29:10;;;;;;;3.03;1.27;;;19.40;82.50;;;;;;5011376;28;20049;-76
2022/07/06 06:31:37;;;;;;;5.35;1.85;;;19.50;80.10;;;;;;5013332;28;20038;-76
2022/07/06 06:34:03;;;;;;;3.72;1.50;;;19.20;80.30;;;;;;5012738;28;20034;-76
2022/07/06 06:36:29;;;;;;;8.65;1.92;;;19.10;81.50;;;;;;5012786;28;20037;-77
2022/07/06 06:38:55;;;;;;;10.27;3.67;;;19.70;79.70;;;;;;5013260;28;20045;-76
2022/07/06 06:41:21;;;;;;;6.80;2.10;;;19.70;78.70;;;;;;5012984;28;20041;-76
2022/07/06 06:43:47;;;;;;;9.70;3.08;;;19.40;79.10;;;;;;5013097;28;20033;-78
2022/07/06 06:46:18;;;;;;;5.30;2.00;;;19.40;79.60;;;;;;4995360;28;20042;-76
2022/07/06 06:48:44;;;;;;;4.53;1.88;;;19.50;78.30;;;;;;5012491;28;20402;-76
2022/07/06 06:51:10;;;;;;;3.45;1.70;;;19.20;79.60;;;;;;5012633;28;20027;-77
2022/07/06 06:53:36;;;;;;;6.35;2.28;;;19.40;79.70;;;;;;5012740;28;20030;-74
2022/07/06 06:56:03;;;;;;;8.50;2.20;;;18.90;80.30;;;;;;5012655;28;20030;-74
2022/07/06 06:58:29;;;;;;;6.50;1.60;;;19.20;81.20;;;;;;4993906;28;20470;-75
2022/07/06 07:00:55;;;;;;;5.82;1.88;;;19.90;78.90;;;;;;5012850;28;20073;-75
2022/07/06 07:03:21;;;;;;;3.97;2.30;;;20.30;77.00;;;;;;5012260;28;20026;-74
2022/07/06 07:05:48;;;;;;;3.63;2.10;;;20.20;76.20;;;;;;5012046;28;20046;-75
2022/07/06 07:08:14;;;;;;;6.60;1.98;;;19.70;78.50;;;;;;5010700;28;20046;-74
2022/07/06 07:10:41;;;;;;;7.63;2.83;;;20.40;76.30;;;;;;4998579;28;20041;-75
2022/07/06 07:13:07;;;;;;;8.00;2.08;;;20.80;73.70;;;;;;5012515;28;20041;-75
2022/07/06 07:15:33;;;;;;;3.08;1.42;;;21.10;71.90;;;;;;5012441;28;20467;-74
2022/07/06 07:17:59;;;;;;;5.22;2.03;;;21.00;72.20;;;;;;5011489;28;20041;-75
2022/07/06 07:20:25;;;;;;;3.70;1.70;;;20.80;72.50;;;;;;5011698;28;20030;-75
2022/07/06 07:22:52;;;;;;;5.18;2.05;;;20.50;73.20;;;;;;5011851;28;20049;-75
2022/07/06 07:25:18;;;;;;;4.82;1.63;;;20.60;73.40;;;;;;5011303;28;20041;-75
2022/07/06 07:27:44;;;;;;;5.05;1.65;;;20.20;73.20;;;;;;5012386;28;20034;-74
2022/07/06 07:30:11;;;;;;;4.95;1.77;;;20.50;72.30;;;;;;5012267;28;20036;-75
2022/07/06 07:32:37;;;;;;;12.18;1.67;;;20.50;71.40;;;;;;5012642;28;20034;-75
2022/07/06 07:35:04;;;;;;;12.82;2.08;;;21.00;71.10;;;;;;5012272;28;20038;-74
2022/07/06 07:37:30;;;;;;;6.93;2.00;;;21.30;70.30;;;;;;5011622;28;20026;-75
2022/07/06 07:39:59;;;;;;;5.97;1.88;;;20.60;71.00;;;;;;5012475;28;20036;-74
2022/07/06 07:42:25;;;;;;;5.93;2.05;;;20.80;72.70;;;;;;5011893;28;20038;-74
2022/07/06 07:44:51;;;;;;;5.40;2.30;;;21.30;68.80;;;;;;5011173;28;20054;-75
2022/07/06 07:47:18;;;;;;;4.28;1.80;;;21.10;68.00;;;;;;5011838;28;20041;-74
2022/07/06 07:49:44;;;;;;;4.97;1.73;;;20.70;68.40;;;;;;5012298;28;20029;-74
2022/07/06 07:52:10;;;;;;;4.43;1.35;;;20.60;69.80;;;;;;5012018;28;20036;-74
2022/07/06 07:54:37;;;;;;;2.25;1.42;;;21.20;68.20;;;;;;5011968;28;20046;-75
2022/07/06 07:57:03;;;;;;;7.03;2.53;;;21.70;67.80;;;;;;5011563;28;20483;-75
2022/07/06 07:59:30;;;;;;;3.45;1.83;;;21.70;66.40;;;;;;5014000;28;20271;-80
2022/07/06 08:01:56;;;;;;;6.05;2.00;;;21.10;66.30;;;;;;5046557;28;20052;-75
2022/07/06 08:04:22;;;;;;;3.55;1.67;;;20.30;68.60;;;;;;5030654;28;20040;-74
2022/07/06 08:06:49;;;;;;;4.88;1.52;;;20.20;69.50;;;;;;5012065;28;20033;-73
2022/07/06 08:09:16;;;;;;;4.55;2.00;;;20.40;69.40;;;;;;5008875;28;20471;-75
2022/07/06 08:11:43;;;;;;;4.85;1.60;;;20.80;67.20;;;;;;5010551;28;20034;-74
2022/07/06 08:14:09;;;;;;;6.60;2.15;;;20.20;69.80;;;;;;5011303;28;20049;-77
2022/07/06 08:16:36;;;;;;;5.53;2.05;;;20.40;67.10;;;;;;5026883;28;20050;-75
2022/07/06 08:19:02;;;;;;;3.83;1.10;;;20.40;67.70;;;;;;5011928;28;20037;-76
2022/07/06 08:21:28;;;;;;;5.18;1.73;;;20.50;67.20;;;;;;5011429;28;20049;-75
2022/07/06 08:23:55;;;;;;;9.55;2.33;;;20.70;66.60;;;;;;5012010;28;20455;-74
2022/07/06 08:26:22;;;;;;;8.35;1.40;;;21.10;65.40;;;;;;5009785;28;20026;-75
2022/07/06 08:28:48;;;;;;;4.38;1.45;;;21.70;63.50;;;;;;5011502;28;20391;-74
2022/07/06 08:31:14;;;;;;;4.97;2.47;;;22.00;63.50;;;;;;5011345;28;20034;-75
2022/07/06 08:33:40;;;;;;;4.63;1.42;;;22.20;62.30;;;;;;5010811;28;20038;-74
2022/07/06 08:36:07;;;;;;;2.75;1.00;;;22.20;60.70;;;;;;5009920;28;20048;-77
2022/07/06 08:38:33;;;;;;;5.97;1.45;;;21.80;60.70;;;;;;5010904;28;20360;-75
2022/07/06 08:40:59;;;;;;;3.08;1.27;;;21.00;62.80;;;;;;5011231;28;20057;-75
2022/07/06 08:43:25;;;;;;;4.15;1.23;;;20.90;63.00;;;;;;5011269;28;20383;-74
2022/07/06 08:45:54;;;;;;;2.13;1.15;;;21.40;62.00;;;;;;5011401;28;20030;-75
2022/07/06 08:48:23;;;;;;;10.15;2.85;;;20.90;62.40;;;;;;5010621;28;20030;-75
2022/07/06 08:50:49;;;;;;;5.87;1.30;;;20.50;62.40;;;;;;5012563;28;20041;-74
2022/07/06 08:53:17;;;;;;;4.55;1.50;;;20.40;62.70;;;;;;5013681;28;20049;-75
2022/07/06 08:55:44;;;;;;;5.40;1.42;;;20.70;61.50;;;;;;5013211;28;20483;-75
2022/07/06 08:58:11;;;;;;;2.80;1.00;;;20.50;61.80;;;;;;5014804;28;20034;-77
2022/07/06 09:00:38;;;;;;;3.35;1.65;;;20.50;62.60;;;;;;5014019;28;20054;-75
2022/07/06 09:03:05;;;;;;;2.17;1.13;;;20.80;61.60;;;;;;5014269;28;20045;-75
2022/07/06 09:05:33;;;;;;;6.07;1.55;;;20.90;62.80;;;;;;5014081;28;20042;-76
2022/07/06 09:08:01;;;;;;;4.20;1.38;;;21.60;59.00;;;;;;5000330;28;20395;-74
2022/07/06 09:10:28;;;;;;;5.78;1.35;;;20.60;60.40;;;;;;5010766;28;20093;-74
2022/07/06 09:13:03;;;;;;;5.60;1.70;;;20.40;61.20;;;;;;5014505;28;20044;-74
2022/07/06 09:15:30;;;;;;;4.63;1.58;;;20.30;61.70;;;;;;5014111;28;20034;-73
2022/07/06 09:17:57;;;;;;;4.35;1.25;;;20.40;61.20;;;;;;5014253;28;20045;-74
2022/07/06 09:20:24;;;;;;;4.20;1.40;;;20.90;61.10;;;;;;5014181;28;20043;-75
2022/07/06 09:22:50;;;;;;;3.58;1.52;;;21.20;59.90;;;;;;5013838;28;20041;-74
2022/07/06 09:25:17;;;;;;;5.43;1.42;;;20.90;61.00;;;;;;5014112;28;20037;-74
2022/07/06 09:27:47;;;;;;;5.25;1.55;;;21.50;61.40;;;;;;5014294;28;20039;-74
2022/07/06 09:30:14;;;;;;;4.30;1.73;;;21.50;60.00;;;;;;5013864;28;20570;-74
2022/07/06 09:32:46;;;;;;;2.85;1.05;;;21.10;60.20;;;;;;5014121;28;20049;-74
2022/07/06 09:35:25;;;;;;;4.15;1.23;;;21.70;60.10;;;;;;5013661;28;20403;-75
2022/07/06 09:38:20;;;;;;;3.85;0.98;;;23.00;57.80;;;;;;5012635;28;20362;-74
2022/07/06 09:40:48;;;;;;;3.10;1.15;;;22.60;57.00;;;;;;4999493;28;20046;-74
2022/07/06 09:43:16;;;;;;;3.65;1.08;;;22.30;59.10;;;;;;5013255;28;20041;-74
2022/07/06 09:45:54;;;;;;;2.67;0.93;;;22.20;58.20;;;;;;5013789;28;20046;-75
2022/07/06 09:48:22;;;;;;;2.03;1.00;;;21.80;58.30;;;;;;5013136;28;20102;-75
2022/07/06 09:50:54;;;;;;;2.83;2.20;;;21.50;59.00;;;;;;4995940;28;20053;-74
2022/07/06 09:53:22;;;;;;;2.40;1.48;;;21.40;59.50;;;;;;5013292;28;20056;-75
2022/07/06 09:55:51;;;;;;;6.00;1.55;;;21.50;59.10;;;;;;5013020;28;20033;-75
2022/07/06 09:58:19;;;;;;;2.08;1.08;;;21.70;58.50;;;;;;5013590;28;20034;-74
2022/07/06 10:00:46;;;;;;;3.10;1.60;;;21.90;57.70;;;;;;5015252;28;20046;-75
2022/07/06 10:03:14;;;;;;;2.72;1.08;;;21.90;58.10;;;;;;5014651;28;20041;-76
2022/07/06 10:05:43;;;;;;;4.38;1.33;;;22.00;59.00;;;;;;5014028;28;20037;-74
2022/07/06 10:08:10;;;;;;;3.33;1.60;;;21.80;58.00;;;;;;5013685;28;20033;-78
2022/07/06 10:10:38;;;;;;;3.70;1.60;;;22.10;56.40;;;;;;5012782;28;20045;-77
2022/07/06 10:13:07;;;;;;;4.28;1.40;;;21.70;57.50;;;;;;5013343;28;20030;-75
2022/07/06 10:15:36;;;;;;;2.83;1.20;;;21.80;57.50;;;;;;5013169;28;20056;-75
2022/07/06 10:18:05;;;;;;;4.50;1.35;;;22.00;56.80;;;;;;5013419;28;20030;-75
2022/07/06 10:20:37;;;;;;;7.00;1.95;;;21.80;57.40;;;;;;5013134;28;20041;-75
2022/07/06 10:23:05;;;;;;;8.13;1.20;;;21.70;57.90;;;;;;4995835;28;20041;-75
2022/07/06 10:25:32;;;;;;;3.47;0.90;;;21.40;57.80;;;;;;5013027;28;20051;-75
2022/07/06 10:27:59;;;;;;;5.25;1.58;;;21.40;59.40;;;;;;5012478;28;20486;-75
2022/07/06 10:30:28;;;;;;;5.75;1.33;;;21.90;56.40;;;;;;5012910;28;20030;-76
2022/07/06 10:32:56;;;;;;;4.30;0.98;;;21.30;56.50;;;;;;5012476;28;20224;-76
2022/07/06 10:35:22;;;;;;;2.70;1.15;;;21.20;57.80;;;;;;4998430;28;20065;-76
2022/07/06 10:38:09;;;;;;;2.53;1.17;;;21.60;56.30;;;;;;5011149;28;20048;-76
2022/07/06 10:43:23;;;;;;;4.55;1.05;;;21.90;57.30;;;;;;5012610;28;20045;-76
2022/07/06 10:45:50;;;;;;;3.13;0.75;;;21.50;54.60;;;;;;5012715;28;20033;-74
2022/07/06 10:48:17;;;;;;;3.30;0.90;;;21.60;54.10;;;;;;5012386;28;20044;-76
2022/07/06 10:50:52;;;;;;;2.83;0.93;;;21.50;53.50;;;;;;5012801;28;20490;-76
2022/07/06 10:53:26;;;;;;;5.05;2.53;;;21.70;53.30;;;;;;5011929;28;20033;-76
2022/07/06 10:55:55;;;;;;;2.95;0.70;;;21.70;53.50;;;;;;5012508;28;20092;-75
2022/07/06 10:58:52;;;;;;;2.25;1.08;;;21.80;52.50;;;;;;5011498;28;20038;-79
2022/07/06 11:01:20;;;;;;;3.70;0.80;;;21.40;52.10;;;;;;4995939;28;20494;-76
2022/07/06 11:03:49;;;;;;;3.05;0.73;;;21.40;53.00;;;;;;5011926;28;20054;-76
2022/07/06 11:06:23;;;;;;;1.95;0.77;;;21.70;52.40;;;;;;5011586;28;20439;-76
2022/07/06 11:09:07;;;;;;;1.17;0.73;;;22.10;50.80;;;;;;5000081;28;20042;-76
2022/07/06 11:11:33;;;;;;;2.47;0.60;;;21.70;51.00;;;;;;5011004;28;20243;-76
2022/07/06 11:14:03;;;;;;;1.17;0.60;;;21.90;50.70;;;;;;5011579;28;20037;-76
2022/07/06 11:17:03;;;;;;;1.73;1.02;;;22.00;49.50;;;;;;5011958;28;20049;-75
2022/07/06 11:19:30;;;;;;;2.78;0.80;;;22.10;50.40;;;;;;5011679;28;20419;-76
2022/07/06 11:22:09;;;;;;;1.27;0.88;;;22.40;49.80;;;;;;5012427;28;20061;-74
2022/07/06 11:24:38;;;;;;;0.80;0.60;;;21.90;49.10;;;;;;5011956;28;20049;-74
2022/07/06 11:27:06;;;;;;;8.15;1.23;;;22.30;48.90;;;;;;5012221;28;20459;-74
2022/07/06 11:29:38;;;;;;;17.42;1.42;;;22.10;47.80;;;;;;5012000;28;20049;-74
2022/07/06 11:32:09;;;;;;;3.65;1.00;;;21.80;48.60;;;;;;4994644;28;20041;-76
2022/07/06 11:34:37;;;;;;;;;;;22.20;49.50;;;;;;5011945;28;20037;-75
2022/07/06 11:37:09;;;;;;;4.82;1.30;;;22.00;48.10;;;;;;5011980;28;19921;-76
2022/07/06 11:39:39;;;;;;;3.53;0.80;;;22.10;48.40;;;;;;5011287;28;20471;-75
2022/07/06 11:42:07;;;;;;;3.67;0.95;;;22.20;48.40;;;;;;5011851;28;20034;-75
2022/07/06 11:44:34;;;;;;;1.88;0.85;;;22.10;49.50;;;;;;5011806;28;20056;-75
2022/07/06 11:47:03;;;;;;;4.28;1.00;;;22.50;48.00;;;;;;4993975;28;20078;-75
2022/07/06 11:49:31;;;;;;;2.92;0.95;;;22.60;47.30;;;;;;5012299;28;20467;-76
2022/07/06 11:51:57;;;;;;;5.10;1.30;;;22.30;48.30;;;;;;5011624;28;20037;-77
2022/07/06 11:54:25;;;;;;;3.95;1.50;;;22.40;47.60;;;;;;4990618;28;20391;-75
2022/07/06 11:56:54;;;;;;;3.30;1.02;;;22.70;48.30;;;;;;4991951;28;20506;-74
2022/07/06 11:59:25;;;;;;;2.55;1.58;;;22.90;48.10;;;;;;5003454;28;20037;-75
2022/07/06 12:02:11;;;;;;;2.17;1.23;;;22.70;47.50;;;;;;5011390;28;20403;-76
2022/07/06 12:04:40;;;;;;;5.60;1.60;;;22.80;46.70;;;;;;5011314;28;20038;-75
2022/07/06 12:07:08;;;;;;;4.10;1.80;;;22.20;48.60;;;;;;5010677;28;20037;-74
2022/07/06 12:09:36;;;;;;;1.77;1.35;;;21.90;48.50;;;;;;5011634;28;20279;-74
2022/07/06 12:12:03;;;;;;;4.07;1.50;;;21.90;49.40;;;;;;5011246;28;20026;-75
2022/07/06 12:14:32;;;;;;;4.72;1.88;;;22.20;48.90;;;;;;5011352;28;20030;-76
2022/07/06 12:17:04;;;;;;;4.32;1.60;;;22.50;48.90;;;;;;5011757;28;20030;-76
2022/07/06 12:19:30;;;;;;;2.92;1.40;;;22.90;48.10;;;;;;5006209;28;20031;-75
2022/07/06 12:21:57;;;;;;;3.45;2.13;;;23.10;48.40;;;;;;5001456;28;20041;-75
2022/07/06 12:24:30;;;;;;;3.35;2.15;;;22.70;46.70;;;;;;5011651;28;20038;-76
2022/07/06 12:26:56;;;;;;;10.10;2.10;;;22.70;48.00;;;;;;5014732;28;20044;-75
2022/07/06 12:29:23;;;;;;;40.83;5.15;;;23.00;46.40;;;;;;5015837;28;20044;-76
2022/07/06 12:31:54;;;;;;;11.95;1.80;;;22.40;47.10;;;;;;5027498;28;20018;-77
2022/07/06 12:34:30;;;;;;;5.07;1.17;;;22.80;46.50;;;;;;5033284;28;20078;-74
2022/07/06 12:36:58;;;;;;;3.97;1.73;;;23.00;45.90;;;;;;5035487;28;20021;-76
2022/07/06 12:39:26;;;;;;;2.35;1.13;;;22.60;46.80;;;;;;5025723;28;20030;-76
2022/07/06 12:42:02;;;;;;;9.20;1.42;;;22.80;46.30;;;;;;5015163;28;20034;-76
2022/07/06 12:44:29;;;;;;;2.45;1.45;;;22.90;46.50;;;;;;5014830;28;20033;-74
2022/07/06 12:47:04;;;;;;;3.28;1.10;;;22.70;46.50;;;;;;5012675;28;20033;-75
2022/07/06 12:49:30;;;;;;;1.98;1.02;;;22.60;46.40;;;;;;4996422;28;20049;-74
2022/07/06 12:51:58;;;;;;;3.40;1.05;;;22.50;47.70;;;;;;5014900;28;20040;-75
2022/07/06 12:54:36;;;;;;;1.42;0.70;;;23.00;47.80;;;;;;5014395;28;20045;-76
2022/07/06 12:57:07;;;;;;;2.15;1.08;;;23.10;46.90;;;;;;5014719;28;20030;-75
2022/07/06 12:59:37;;;;;;;5.40;1.52;;;23.20;47.00;;;;;;5014817;28;20038;-76
2022/07/06 13:02:05;;;;;;;2.23;0.97;;;23.30;45.80;;;;;;5006870;28;20471;-75